Terminal Aerodrome Forecast
Issued by NWS Twin Cities, MN

Home | Current Version | Previous Version | Text Only | Print | Product List | Glossary Off
Versions: 1 2 3 4 5 6 7 8 9 10 11 12 13 14 15 16 17 18 19 20

000
FTUS43 KMPX 261959 AAA
TAFSTC
TAF AMD
KSTC 261959Z 2620/2718 33012G20KT P6SM OVC035
     FM262100 35012KT P6SM SCT035
     FM262300 35005KT P6SM SKC
     FM271200 VRB03KT P6SM SKC=

USA.gov is the U.S. government's official web portal to all federal, state and local government web resources and services.